createdAt,value
2022-08-26T00:01:29.086Z,11.73
2022-08-26T00:03:57.385Z,9.80
2022-08-26T00:06:25.247Z,12.13
2022-08-26T00:08:51.867Z,14.80
2022-08-26T00:11:26.197Z,7.27
2022-08-26T00:13:55.126Z,14.57
2022-08-26T00:16:23.538Z,10.40
2022-08-26T00:18:50.394Z,9.27
2022-08-26T00:21:17.293Z,10.30
2022-08-26T00:23:44.149Z,10.07
2022-08-26T00:26:11.088Z,14.43
2022-08-26T00:28:38.033Z,14.40
2022-08-26T00:31:07.145Z,13.63
2022-08-26T00:33:33.936Z,16.90
2022-08-26T00:36:02.020Z,12.53
2022-08-26T00:38:29.270Z,16.00
2022-08-26T00:40:58.528Z,15.07
2022-08-26T00:43:26.531Z,10.50
2022-08-26T00:46:24.949Z,11.00
2022-08-26T00:49:04.264Z,17.57
2022-08-26T00:51:44.622Z,15.37
2022-08-26T00:54:12.554Z,15.73
2022-08-26T00:56:46.998Z,9.27
2022-08-26T00:59:14.572Z,11.77
2022-08-26T01:01:46.043Z,12.83
2022-08-26T01:04:16.168Z,7.53
2022-08-26T01:06:42.732Z,14.47
2022-08-26T01:09:11.075Z,14.63
2022-08-26T01:11:37.700Z,22.03
2022-08-26T01:14:04.959Z,12.93
2022-08-26T01:16:33.344Z,10.53
2022-08-26T01:19:10.362Z,10.60
2022-08-26T01:21:57.223Z,15.17
2022-08-26T01:24:25.973Z,8.27
2022-08-26T01:26:58.701Z,15.97
2022-08-26T01:29:26.210Z,12.07
2022-08-26T01:31:55.923Z,15.07
2022-08-26T01:34:30.397Z,11.13
2022-08-26T01:37:05.497Z,9.00
2022-08-26T01:39:32.770Z,12.97
2022-08-26T01:42:02.922Z,11.03
2022-08-26T01:44:33.294Z,15.80
2022-08-26T01:47:00.458Z,9.80
2022-08-26T01:49:28.025Z,9.77
2022-08-26T01:51:58.837Z,9.07
2022-08-26T01:54:25.968Z,12.33
2022-08-26T01:56:54.043Z,18.10
2022-08-26T01:59:21.699Z,14.00
2022-08-26T02:01:48.895Z,13.57
2022-08-26T02:04:29.141Z,10.37
2022-08-26T02:06:57.549Z,10.53
2022-08-26T02:09:26.187Z,10.63
2022-08-26T02:11:53.764Z,8.27
2022-08-26T02:14:27.067Z,11.17
2022-08-26T02:16:54.113Z,12.40
2022-08-26T02:19:28.207Z,10.17
2022-08-26T02:21:55.265Z,10.50
2022-08-26T02:24:27.787Z,11.47
2022-08-26T02:26:55.472Z,11.33
2022-08-26T02:29:36.325Z,10.60
2022-08-26T02:32:07.628Z,13.00
2022-08-26T02:34:34.858Z,14.17
2022-08-26T02:37:06.362Z,10.00
2022-08-26T02:39:33.818Z,9.97
2022-08-26T02:42:00.456Z,16.17
2022-08-26T02:44:27.602Z,14.27
2022-08-26T02:46:54.801Z,10.93
2022-08-26T02:49:23.208Z,9.03
2022-08-26T02:51:49.980Z,12.20
2022-08-26T02:54:18.352Z,14.83
2022-08-26T02:56:45.488Z,11.43
2022-08-26T02:59:15.511Z,8.93
2022-08-26T03:01:42.774Z,14.83
2022-08-26T03:04:11.091Z,11.53
2022-08-26T03:06:38.967Z,10.17
2022-08-26T03:09:07.797Z,7.73
2022-08-26T03:11:35.739Z,9.20
2022-08-26T03:14:03.789Z,10.63
2022-08-26T03:16:35.223Z,11.83
2022-08-26T03:19:02.923Z,9.40
2022-08-26T03:21:29.679Z,13.90
2022-08-26T03:23:59.403Z,10.57
2022-08-26T03:26:28.002Z,9.40
2022-08-26T03:29:13.953Z,12.00
2022-08-26T03:31:40.763Z,11.20
2022-08-26T03:34:07.332Z,15.50
2022-08-26T03:36:35.051Z,13.27
2022-08-26T03:39:01.837Z,18.60
2022-08-26T03:41:28.926Z,12.83
2022-08-26T03:44:01.438Z,15.50
2022-08-26T03:46:28.752Z,14.07
2022-08-26T03:48:55.555Z,13.10
2022-08-26T03:51:22.178Z,10.27
2022-08-26T03:53:50.978Z,16.60
2022-08-26T03:56:17.977Z,16.83
2022-08-26T03:58:44.923Z,14.80
2022-08-26T04:01:13.261Z,15.27
2022-08-26T04:04:00.552Z,14.60
2022-08-26T04:06:39.181Z,17.37
2022-08-26T04:09:10.511Z,11.40
2022-08-26T04:11:39.522Z,14.33
2022-08-26T04:14:10.186Z,8.90
2022-08-26T04:16:37.085Z,14.73
2022-08-26T04:19:04.393Z,14.17
2022-08-26T04:21:31.351Z,18.53
2022-08-26T04:23:59.154Z,15.07
2022-08-26T04:26:37.021Z,14.17
2022-08-26T04:29:11.295Z,11.90
2022-08-26T04:31:38.492Z,18.37
2022-08-26T04:34:06.007Z,14.47
2022-08-26T04:36:32.792Z,14.80
2022-08-26T04:39:02.466Z,13.10
2022-08-26T04:41:29.764Z,22.20
2022-08-26T04:43:58.933Z,21.87
2022-08-26T04:46:25.953Z,16.77
2022-08-26T04:48:54.379Z,16.13
2022-08-26T04:51:27.351Z,12.13
2022-08-26T04:54:00.005Z,13.70
2022-08-26T04:56:29.643Z,19.10
2022-08-26T04:58:57.854Z,23.43
2022-08-26T05:01:25.073Z,20.47
2022-08-26T05:03:51.930Z,11.90
2022-08-26T05:06:19.608Z,22.17
2022-08-26T05:08:46.505Z,22.63
2022-08-26T05:11:13.638Z,22.70
2022-08-26T05:13:40.523Z,19.60
2022-08-26T05:16:11.519Z,22.10
2022-08-26T05:18:39.140Z,21.83
2022-08-26T05:21:07.004Z,23.10
2022-08-26T05:23:35.904Z,16.60
2022-08-26T05:26:04.970Z,26.83
2022-08-26T05:28:31.654Z,23.00
2022-08-26T05:30:59.024Z,25.57
2022-08-26T05:33:25.916Z,18.50
2022-08-26T05:35:52.589Z,16.33
2022-08-26T05:38:21.754Z,15.87
2022-08-26T05:40:52.683Z,23.20
2022-08-26T05:43:21.224Z,16.47
2022-08-26T05:45:50.067Z,15.93
2022-08-26T05:48:24.333Z,16.97
2022-08-26T05:50:54.222Z,17.93
2022-08-26T05:53:22.281Z,17.13
2022-08-26T05:55:52.627Z,26.47
2022-08-26T05:58:20.988Z,21.40
2022-08-26T06:00:58.867Z,19.90
2022-08-26T06:03:26.250Z,24.80
2022-08-26T06:05:53.167Z,18.50
2022-08-26T06:08:21.190Z,29.13
2022-08-26T06:10:53.906Z,14.83
2022-08-26T06:13:31.982Z,23.77
2022-08-26T06:16:05.131Z,19.20
2022-08-26T06:18:37.649Z,30.93
2022-08-26T06:21:26.938Z,20.10
2022-08-26T06:24:15.823Z,23.30
2022-08-26T06:26:50.510Z,23.83
2022-08-26T06:29:24.277Z,21.33
2022-08-26T06:31:52.284Z,21.23
2022-08-26T06:34:19.103Z,17.07
2022-08-26T06:36:47.373Z,15.67
2022-08-26T06:39:16.099Z,26.70
2022-08-26T06:41:44.975Z,26.50
2022-08-26T06:44:13.623Z,24.90
2022-08-26T06:46:40.818Z,19.73
2022-08-26T06:49:07.779Z,30.33
2022-08-26T06:51:36.702Z,21.35
2022-08-26T06:54:05.101Z,18.90
2022-08-26T06:56:40.659Z,21.73
2022-08-26T06:59:08.349Z,28.98
2022-08-26T07:01:38.978Z,24.17
2022-08-26T07:04:10.548Z,25.38
2022-08-26T07:06:40.491Z,25.33
2022-08-26T07:09:09.739Z,22.98
2022-08-26T07:11:38.349Z,24.80
2022-08-26T07:14:05.982Z,15.45
2022-08-26T07:16:33.293Z,18.33
2022-08-26T07:18:59.945Z,20.42
2022-08-26T07:21:30.219Z,45.85
2022-08-26T07:24:01.332Z,27.73
2022-08-26T07:26:30.123Z,20.75
2022-08-26T07:28:59.429Z,17.33
2022-08-26T07:31:29.468Z,21.98
2022-08-26T07:34:01.944Z,16.90
2022-08-26T07:36:30.409Z,27.40
2022-08-26T07:39:03.611Z,17.65
2022-08-26T07:44:01.746Z,18.88
2022-08-26T07:46:30.189Z,25.67
2022-08-26T07:48:59.002Z,25.05
2022-08-26T07:51:27.025Z,26.85
2022-08-26T07:53:55.344Z,19.85
2022-08-26T07:56:23.379Z,17.95
2022-08-26T07:58:54.572Z,15.52
2022-08-26T08:01:26.052Z,22.00
2022-08-26T08:03:54.128Z,19.55
2022-08-26T08:06:22.875Z,22.70
2022-08-26T08:08:54.701Z,27.88
2022-08-26T08:11:21.646Z,23.50
2022-08-26T08:13:49.917Z,23.13
2022-08-26T08:16:24.549Z,16.20
2022-08-26T08:18:51.366Z,24.38
2022-08-26T08:21:21.945Z,14.63
2022-08-26T08:23:52.116Z,14.50
2022-08-26T08:26:18.858Z,16.55
2022-08-26T08:28:47.830Z,16.65
2022-08-26T08:31:56.714Z,15.40
2022-08-26T08:34:19.218Z,17.50
2022-08-26T08:36:48.421Z,22.88
2022-08-26T08:39:15.133Z,17.85
2022-08-26T08:41:51.100Z,21.05
2022-08-26T08:44:30.868Z,21.90
2022-08-26T08:47:18.500Z,22.63
2022-08-26T08:49:47.333Z,15.30
2022-08-26T08:52:36.937Z,14.25
2022-08-26T08:55:06.132Z,12.10
2022-08-26T08:57:41.138Z,13.43
2022-08-26T09:00:18.014Z,16.23
2022-08-26T09:03:01.782Z,23.30
2022-08-26T09:05:35.105Z,19.15
2022-08-26T09:08:04.941Z,14.65
2022-08-26T09:10:37.311Z,18.00
2022-08-26T09:13:07.858Z,15.07
2022-08-26T09:16:03.061Z,22.48
2022-08-26T09:18:42.387Z,19.50
2022-08-26T09:21:14.961Z,22.52
2022-08-26T09:23:42.868Z,23.02
2022-08-26T09:26:20.304Z,18.55
2022-08-26T09:29:09.170Z,23.20
2022-08-26T09:31:37.312Z,12.80
2022-08-26T09:34:17.054Z,15.63
2022-08-26T09:36:49.621Z,15.00
2022-08-26T09:39:27.967Z,12.25
2022-08-26T09:42:28.318Z,23.67
2022-08-26T09:45:04.935Z,10.98
2022-08-26T09:47:48.059Z,15.13
2022-08-26T09:50:30.688Z,17.35
2022-08-26T09:53:20.897Z,20.45
2022-08-26T09:55:50.092Z,25.27
2022-08-26T09:58:37.834Z,19.95
2022-08-26T10:01:14.354Z,13.30
2022-08-26T10:03:42.659Z,9.75
2022-08-26T10:06:18.151Z,18.35
2022-08-26T10:09:00.071Z,17.90
2022-08-26T10:11:37.594Z,21.42
2022-08-26T10:14:16.460Z,19.00
2022-08-26T10:16:51.162Z,15.38
2022-08-26T10:19:25.545Z,18.10
2022-08-26T10:22:16.289Z,18.17
2022-08-26T10:24:51.958Z,18.02
2022-08-26T10:27:51.224Z,24.97
2022-08-26T10:30:22.322Z,15.88
2022-08-26T10:32:51.874Z,16.77
2022-08-26T10:35:19.482Z,15.27
2022-08-26T10:37:49.565Z,20.67
2022-08-26T10:40:38.457Z,14.13
2022-08-26T10:43:11.651Z,16.38
2022-08-26T10:45:50.687Z,12.02
2022-08-26T10:48:23.218Z,16.05
2022-08-26T10:50:50.043Z,11.43
2022-08-26T10:53:32.514Z,12.00
2022-08-26T10:56:18.814Z,16.23
2022-08-26T10:58:57.484Z,17.65
2022-08-26T11:01:42.843Z,27.95
2022-08-26T11:04:13.196Z,15.13
2022-08-26T11:06:39.951Z,16.45
2022-08-26T11:09:08.802Z,19.95
2022-08-26T11:11:41.340Z,17.25
2022-08-26T11:14:28.486Z,15.60
2022-08-26T11:17:00.231Z,12.77
2022-08-26T11:19:56.821Z,14.43
2022-08-26T11:22:47.592Z,17.98
2022-08-26T11:25:29.662Z,12.27
2022-08-26T11:27:59.863Z,15.93
2022-08-26T11:30:41.561Z,11.98
2022-08-26T11:33:09.318Z,11.60
2022-08-26T11:35:38.777Z,14.98
2022-08-26T11:38:23.156Z,9.68
2022-08-26T11:41:18.657Z,13.30
2022-08-26T11:43:49.476Z,18.52
2022-08-26T11:46:24.981Z,10.63
2022-08-26T11:49:05.516Z,8.55
2022-08-26T11:51:35.950Z,9.43
2022-08-26T11:54:15.002Z,18.42
2022-08-26T11:56:45.137Z,19.02
2022-08-26T11:59:16.643Z,10.98
2022-08-26T12:01:44.825Z,8.45
2022-08-26T12:04:18.109Z,14.40
2022-08-26T12:06:51.027Z,11.32
2022-08-26T12:09:27.780Z,13.40
2022-08-26T12:12:17.761Z,16.05
2022-08-26T12:14:44.965Z,16.38
2022-08-26T12:17:15.759Z,13.98
2022-08-26T12:19:42.707Z,13.80
2022-08-26T12:22:22.642Z,8.98
2022-08-26T12:25:00.765Z,9.88
2022-08-26T12:27:34.274Z,10.35
2022-08-26T12:30:06.897Z,12.32
2022-08-26T12:32:39.156Z,10.65
2022-08-26T12:35:23.973Z,16.95
2022-08-26T12:37:53.672Z,13.70
2022-08-26T12:40:30.992Z,9.15
2022-08-26T12:43:00.991Z,9.23
2022-08-26T12:45:36.517Z,13.05
2022-08-26T12:48:10.090Z,7.68
2022-08-26T12:50:39.260Z,10.98
2022-08-26T12:53:11.852Z,7.25
2022-08-26T12:55:50.793Z,12.98
2022-08-26T12:58:25.891Z,9.43
2022-08-26T13:00:59.198Z,17.73
2022-08-26T13:03:43.594Z,10.00
2022-08-26T13:06:29.844Z,14.10
2022-08-26T13:09:05.135Z,10.55
2022-08-26T13:11:40.610Z,18.17
2022-08-26T13:14:10.088Z,16.20
2022-08-26T13:16:38.118Z,13.55
2022-08-26T13:19:16.597Z,11.02
2022-08-26T13:21:54.008Z,9.98
2022-08-26T13:24:26.874Z,12.32
2022-08-26T13:26:53.890Z,16.52
2022-08-26T13:29:20.673Z,11.32
2022-08-26T13:31:48.064Z,8.13
2022-08-26T13:34:19.557Z,11.18
2022-08-26T13:36:51.267Z,12.50
2022-08-26T13:39:18.385Z,16.92
2022-08-26T13:41:45.016Z,13.60
2022-08-26T13:44:12.378Z,10.02
2022-08-26T13:46:39.627Z,10.88
2022-08-26T13:49:06.779Z,9.77
2022-08-26T13:51:33.975Z,13.40
2022-08-26T13:54:00.744Z,10.98
2022-08-26T13:56:29.826Z,11.88
2022-08-26T13:58:58.709Z,16.65
2022-08-26T14:01:26.443Z,13.65
2022-08-26T14:03:53.522Z,13.20
2022-08-26T14:06:23.010Z,13.95
2022-08-26T14:08:49.865Z,14.65
2022-08-26T14:11:17.540Z,14.75
2022-08-26T14:13:44.479Z,11.38
2022-08-26T14:16:14.179Z,20.38
2022-08-26T14:18:42.579Z,11.25
2022-08-26T14:21:13.021Z,8.52
2022-08-26T14:23:40.352Z,13.10
2022-08-26T14:26:21.208Z,16.02
2022-08-26T14:28:59.225Z,9.52
2022-08-26T14:31:27.115Z,12.98
2022-08-26T14:33:53.874Z,15.57
2022-08-26T14:36:31.501Z,12.35
2022-08-26T14:39:05.180Z,11.27
2022-08-26T14:41:32.563Z,12.50
2022-08-26T14:44:05.868Z,11.60
2022-08-26T14:46:36.674Z,14.30
2022-08-26T14:49:07.267Z,16.98
2022-08-26T14:51:36.751Z,11.40
2022-08-26T14:54:12.631Z,9.50
2022-08-26T14:56:48.913Z,18.23
2022-08-26T14:59:18.673Z,15.45
2022-08-26T15:01:45.511Z,12.95
2022-08-26T15:04:12.756Z,15.23
2022-08-26T15:06:39.656Z,10.38
2022-08-26T15:09:06.702Z,12.13
2022-08-26T15:11:33.299Z,23.08
2022-08-26T15:14:00.174Z,17.80
2022-08-26T15:16:28.388Z,9.45
2022-08-26T15:18:55.498Z,12.85
2022-08-26T15:21:23.155Z,16.92
2022-08-26T15:23:50.329Z,12.02
2022-08-26T15:26:17.361Z,12.02
2022-08-26T15:28:44.484Z,19.00
2022-08-26T15:31:11.230Z,17.38
2022-08-26T15:33:39.378Z,16.35
2022-08-26T15:36:07.254Z,13.55
2022-08-26T15:38:37.519Z,16.10
2022-08-26T15:41:06.576Z,15.65
2022-08-26T15:43:33.475Z,14.00
2022-08-26T15:46:00.120Z,16.58
2022-08-26T15:48:27.036Z,15.23
2022-08-26T15:50:57.536Z,18.65
2022-08-26T15:53:24.572Z,16.35
2022-08-26T15:55:53.891Z,11.88
2022-08-26T15:58:21.121Z,17.10
2022-08-26T16:00:48.182Z,14.35
2022-08-26T16:03:15.046Z,17.63
2022-08-26T16:05:43.630Z,12.40
2022-08-26T16:08:11.100Z,14.95
2022-08-26T16:10:40.669Z,13.48
2022-08-26T16:13:09.392Z,8.75
2022-08-26T16:15:38.518Z,15.45
2022-08-26T16:18:06.087Z,10.52
2022-08-26T16:20:34.873Z,13.40
2022-08-26T16:23:02.927Z,8.55
2022-08-26T16:25:30.206Z,12.50
2022-08-26T16:27:58.757Z,13.02
2022-08-26T16:30:25.891Z,16.75
2022-08-26T16:32:52.381Z,16.25
2022-08-26T16:35:19.048Z,13.77
2022-08-26T16:37:45.912Z,8.15
2022-08-26T16:40:12.680Z,17.40
2022-08-26T16:42:39.459Z,13.88
2022-08-26T16:45:06.616Z,13.07
2022-08-26T16:47:33.990Z,12.15
2022-08-26T16:50:00.818Z,11.43
2022-08-26T16:52:30.152Z,10.07
2022-08-26T16:54:59.089Z,7.78
2022-08-26T16:57:25.877Z,10.63
2022-08-26T16:59:52.413Z,10.55
2022-08-26T17:02:19.109Z,13.60
2022-08-26T17:04:47.162Z,10.43
2022-08-26T17:07:17.095Z,9.80
2022-08-26T17:09:43.691Z,11.85
2022-08-26T17:12:10.463Z,12.63
2022-08-26T17:14:37.549Z,10.38
2022-08-26T17:17:06.057Z,11.60
2022-08-26T17:19:40.947Z,10.02
2022-08-26T17:22:13.826Z,11.45
2022-08-26T17:24:40.933Z,16.27
2022-08-26T17:27:07.857Z,13.98
2022-08-26T17:29:34.589Z,13.57
2022-08-26T17:32:01.496Z,12.55
2022-08-26T17:34:27.988Z,21.38
2022-08-26T17:36:54.478Z,12.40
2022-08-26T17:39:22.411Z,15.35
2022-08-26T17:41:49.214Z,17.00
2022-08-26T17:44:16.191Z,9.93
2022-08-26T17:46:42.945Z,13.52
2022-08-26T17:49:10.105Z,13.88
2022-08-26T17:51:36.699Z,12.45
2022-08-26T17:54:03.944Z,14.37
2022-08-26T17:56:30.562Z,11.05
2022-08-26T17:59:02.543Z,11.80
2022-08-26T18:01:31.030Z,12.53
2022-08-26T18:04:00.605Z,13.10
2022-08-26T18:06:28.924Z,15.63
2022-08-26T18:08:55.596Z,28.55
2022-08-26T18:11:23.865Z,22.07
2022-08-26T18:13:50.866Z,45.83
2022-08-26T18:16:18.865Z,102.47
2022-08-26T18:18:46.968Z,64.85
2022-08-26T18:21:18.584Z,58.40
2022-08-26T18:23:46.404Z,39.85
2022-08-26T18:26:21.913Z,56.87
2022-08-26T18:28:48.889Z,33.53
2022-08-26T18:31:19.056Z,31.88
2022-08-26T18:33:45.741Z,25.98
2022-08-26T18:36:21.864Z,26.07
2022-08-26T18:38:50.398Z,22.70
2022-08-26T18:41:18.493Z,17.30
2022-08-26T18:43:45.317Z,21.25
2022-08-26T18:46:12.087Z,21.15
2022-08-26T18:48:40.114Z,14.27
2022-08-26T18:51:07.523Z,19.98
2022-08-26T18:53:39.027Z,12.73
2022-08-26T18:56:05.795Z,18.20
2022-08-26T18:58:32.423Z,9.82
2022-08-26T19:00:59.183Z,20.17
2022-08-26T19:03:28.603Z,9.73
2022-08-26T19:05:55.573Z,12.07
2022-08-26T19:08:22.113Z,17.50
2022-08-26T19:10:48.773Z,13.18
2022-08-26T19:13:16.577Z,12.75
2022-08-26T19:15:45.607Z,8.88
2022-08-26T19:18:17.798Z,11.33
2022-08-26T19:20:46.860Z,15.93
2022-08-26T19:23:30.816Z,16.25
2022-08-26T19:25:58.885Z,15.57
2022-08-26T19:28:25.472Z,12.70
2022-08-26T19:30:53.302Z,18.02
2022-08-26T19:33:20.077Z,10.90
2022-08-26T19:35:46.719Z,9.68
2022-08-26T19:38:14.017Z,10.27
2022-08-26T19:40:40.722Z,14.77
2022-08-26T19:43:07.458Z,11.63
2022-08-26T19:45:34.426Z,14.27
2022-08-26T19:48:01.528Z,10.87
2022-08-26T19:50:30.110Z,19.20
2022-08-26T19:52:57.248Z,12.07
2022-08-26T19:55:24.230Z,11.13
2022-08-26T19:57:52.375Z,12.32
2022-08-26T20:00:23.543Z,9.30
2022-08-26T20:02:50.640Z,12.43
2022-08-26T20:05:20.401Z,12.17
2022-08-26T20:07:47.814Z,8.27
2022-08-26T20:10:16.972Z,13.57
2022-08-26T20:12:43.847Z,11.70
2022-08-26T20:15:12.284Z,17.20
2022-08-26T20:17:39.819Z,9.35
2022-08-26T20:20:32.965Z,14.05
2022-08-26T20:23:01.381Z,14.80
2022-08-26T20:25:28.061Z,14.07
2022-08-26T20:27:54.861Z,11.43
2022-08-26T20:30:21.492Z,11.93
2022-08-26T20:32:48.828Z,10.87
2022-08-26T20:35:15.916Z,14.03
2022-08-26T20:37:42.855Z,10.77
2022-08-26T20:40:11.659Z,13.47
2022-08-26T20:42:38.376Z,11.47
2022-08-26T20:45:07.122Z,12.80
2022-08-26T20:47:33.813Z,16.77
2022-08-26T20:50:00.473Z,9.13
2022-08-26T20:52:27.699Z,13.13
2022-08-26T20:54:54.397Z,11.77
2022-08-26T20:57:22.329Z,17.57
2022-08-26T20:59:49.449Z,13.57
2022-08-26T21:02:16.542Z,11.83
2022-08-26T21:04:43.320Z,14.10
2022-08-26T21:07:10.190Z,13.20
2022-08-26T21:09:36.731Z,12.83
2022-08-26T21:12:05.069Z,12.57
2022-08-26T21:14:31.713Z,17.23
2022-08-26T21:16:59.524Z,14.27
2022-08-26T21:19:26.723Z,12.83
2022-08-26T21:21:53.544Z,12.00
2022-08-26T21:24:20.268Z,15.23
2022-08-26T21:26:46.929Z,20.17
2022-08-26T21:29:14.021Z,17.43
2022-08-26T21:31:45.645Z,15.13
2022-08-26T21:34:13.945Z,16.40
2022-08-26T21:36:40.618Z,17.27
2022-08-26T21:39:11.483Z,13.37
2022-08-26T21:41:39.092Z,12.97
2022-08-26T21:44:05.825Z,14.63
2022-08-26T21:46:34.943Z,17.33
2022-08-26T21:49:04.245Z,19.27
2022-08-26T21:51:34.004Z,14.10
2022-08-26T21:54:03.681Z,12.77
2022-08-26T21:56:33.269Z,10.13
2022-08-26T21:59:00.357Z,12.80
2022-08-26T22:01:31.930Z,16.40
2022-08-26T22:03:58.973Z,17.23
2022-08-26T22:06:27.738Z,13.97
2022-08-26T22:08:55.919Z,18.67
2022-08-26T22:11:24.514Z,14.13
2022-08-26T22:13:52.193Z,17.90
2022-08-26T22:16:19.329Z,12.57
2022-08-26T22:18:46.647Z,16.00
2022-08-26T22:21:19.100Z,15.37
2022-08-26T22:23:46.058Z,11.70
2022-08-26T22:26:15.296Z,15.43
2022-08-26T22:28:58.869Z,22.27
2022-08-26T22:31:37.245Z,17.37
2022-08-26T22:34:07.658Z,13.63
2022-08-26T22:36:34.434Z,15.63
2022-08-26T22:39:01.249Z,14.73
2022-08-26T22:41:27.956Z,14.37
2022-08-26T22:43:54.529Z,16.70
2022-08-26T22:46:26.196Z,15.20
2022-08-26T22:48:54.206Z,21.67
2022-08-26T22:51:21.877Z,17.57
2022-08-26T22:53:48.620Z,13.13
2022-08-26T22:56:15.743Z,12.60
2022-08-26T22:58:42.520Z,13.00
2022-08-26T23:01:09.381Z,19.17
2022-08-26T23:03:36.478Z,13.80
2022-08-26T23:06:06.934Z,16.13
2022-08-26T23:08:33.589Z,12.53
2022-08-26T23:11:00.405Z,20.83
2022-08-26T23:13:27.879Z,14.37
2022-08-26T23:16:06.874Z,21.33
2022-08-26T23:18:33.530Z,14.13
2022-08-26T23:21:00.855Z,14.83
2022-08-26T23:23:27.774Z,20.07
2022-08-26T23:25:57.723Z,20.97
2022-08-26T23:28:24.347Z,18.43
2022-08-26T23:30:51.261Z,21.33
2022-08-26T23:33:17.810Z,17.93
2022-08-26T23:35:44.577Z,14.47
2022-08-26T23:38:14.284Z,13.90
2022-08-26T23:40:41.357Z,17.33
2022-08-26T23:43:11.287Z,18.13
2022-08-26T23:45:38.108Z,17.97
2022-08-26T23:48:05.093Z,16.47
2022-08-26T23:50:50.733Z,20.43
2022-08-26T23:53:20.544Z,17.27
2022-08-26T23:55:49.533Z,14.63
2022-08-26T23:58:18.121Z,15.27
